sensor_id;sensor_type;location;lat;lon;timestamp;temperature;humidity
61253;DHT22;47127;47.516;8.596;2023-04-26T00:02:11;7.50;99.90
61253;DHT22;47127;47.516;8.596;2023-04-26T00:04:38;7.40;99.90
61253;DHT22;47127;47.516;8.596;2023-04-26T00:07:04;7.30;99.90
61253;DHT22;47127;47.516;8.596;2023-04-26T00:09:29;7.30;99.90
61253;DHT22;47127;47.516;8.596;2023-04-26T00:11:56;7.30;99.90
61253;DHT22;47127;47.516;8.596;2023-04-26T00:14:21;7.40;99.90
61253;DHT22;47127;47.516;8.596;2023-04-26T00:16:47;7.50;99.90
61253;DHT22;47127;47.516;8.596;2023-04-26T00:19:12;7.60;99.90
61253;DHT22;47127;47.516;8.596;2023-04-26T00:21:38;7.50;99.90
61253;DHT22;47127;47.516;8.596;2023-04-26T00:24:04;7.40;99.90
61253;DHT22;47127;47.516;8.596;2023-04-26T00:26:30;7.40;99.90
61253;DHT22;47127;47.516;8.596;2023-04-26T00:28:56;7.40;99.90
61253;DHT22;47127;47.516;8.596;2023-04-26T00:31:22;7.50;99.90
61253;DHT22;47127;47.516;8.596;2023-04-26T00:33:47;7.50;99.90
61253;DHT22;47127;47.516;8.596;2023-04-26T00:36:13;7.60;99.90
61253;DHT22;47127;47.516;8.596;2023-04-26T00:38:39;7.50;99.90
61253;DHT22;47127;47.516;8.596;2023-04-26T00:41:05;7.50;99.90
61253;DHT22;47127;47.516;8.596;2023-04-26T00:43:31;7.50;99.90
61253;DHT22;47127;47.516;8.596;2023-04-26T00:45:57;7.50;99.90
61253;DHT22;47127;47.516;8.596;2023-04-26T00:48:22;7.40;99.90
61253;DHT22;47127;47.516;8.596;2023-04-26T00:50:48;7.50;99.90
61253;DHT22;47127;47.516;8.596;2023-04-26T00:53:14;7.40;99.90
61253;DHT22;47127;47.516;8.596;2023-04-26T00:55:41;7.40;99.90
61253;DHT22;47127;47.516;8.596;2023-04-26T00:58:07;7.50;99.90
61253;DHT22;47127;47.516;8.596;2023-04-26T01:00:33;7.50;99.90
61253;DHT22;47127;47.516;8.596;2023-04-26T01:02:58;7.50;99.90
61253;DHT22;47127;47.516;8.596;2023-04-26T01:05:24;7.50;99.90
61253;DHT22;47127;47.516;8.596;2023-04-26T01:07:50;7.60;99.90
61253;DHT22;47127;47.516;8.596;2023-04-26T01:10:16;7.60;99.90
61253;DHT22;47127;47.516;8.596;2023-04-26T01:12:42;7.60;99.90
61253;DHT22;47127;47.516;8.596;2023-04-26T01:15:09;7.60;99.90
61253;DHT22;47127;47.516;8.596;2023-04-26T01:17:35;7.80;99.90
61253;DHT22;47127;47.516;8.596;2023-04-26T01:20:02;7.80;99.90
61253;DHT22;47127;47.516;8.596;2023-04-26T01:22:31;7.80;99.90
61253;DHT22;47127;47.516;8.596;2023-04-26T01:24:58;7.80;99.90
61253;DHT22;47127;47.516;8.596;2023-04-26T01:27:25;7.80;99.90
61253;DHT22;47127;47.516;8.596;2023-04-26T01:29:51;7.90;99.90
61253;DHT22;47127;47.516;8.596;2023-04-26T01:32:17;7.80;99.90
61253;DHT22;47127;47.516;8.596;2023-04-26T01:34:42;7.80;99.90
61253;DHT22;47127;47.516;8.596;2023-04-26T01:37:08;7.80;99.90
61253;DHT22;47127;47.516;8.596;2023-04-26T01:39:34;7.80;99.90
61253;DHT22;47127;47.516;8.596;2023-04-26T01:42:01;7.80;99.90
61253;DHT22;47127;47.516;8.596;2023-04-26T01:44:27;7.80;99.90
61253;DHT22;47127;47.516;8.596;2023-04-26T01:46:52;7.70;99.90
61253;DHT22;47127;47.516;8.596;2023-04-26T01:49:18;7.60;99.90
61253;DHT22;47127;47.516;8.596;2023-04-26T01:51:44;7.60;99.90
61253;DHT22;47127;47.516;8.596;2023-04-26T01:54:09;7.60;99.90
61253;DHT22;47127;47.516;8.596;2023-04-26T01:56:35;7.60;99.90
61253;DHT22;47127;47.516;8.596;2023-04-26T01:59:00;7.50;99.90
61253;DHT22;47127;47.516;8.596;2023-04-26T02:01:26;7.50;99.90
61253;DHT22;47127;47.516;8.596;2023-04-26T02:03:52;7.50;99.90
61253;DHT22;47127;47.516;8.596;2023-04-26T02:06:17;7.30;99.90
61253;DHT22;47127;47.516;8.596;2023-04-26T02:08:44;7.20;99.90
61253;DHT22;47127;47.516;8.596;2023-04-26T02:11:09;7.00;99.90
61253;DHT22;47127;47.516;8.596;2023-04-26T02:13:36;7.00;99.90
61253;DHT22;47127;47.516;8.596;2023-04-26T02:16:02;7.00;99.90
61253;DHT22;47127;47.516;8.596;2023-04-26T02:18:27;7.00;99.90
61253;DHT22;47127;47.516;8.596;2023-04-26T02:20:54;7.10;99.90
61253;DHT22;47127;47.516;8.596;2023-04-26T02:23:19;7.20;99.90
61253;DHT22;47127;47.516;8.596;2023-04-26T02:25:46;7.20;99.90
61253;DHT22;47127;47.516;8.596;2023-04-26T02:28:13;7.10;99.90
61253;DHT22;47127;47.516;8.596;2023-04-26T02:30:39;7.10;99.90
61253;DHT22;47127;47.516;8.596;2023-04-26T02:33:04;7.20;99.90
61253;DHT22;47127;47.516;8.596;2023-04-26T02:35:30;7.20;99.90
61253;DHT22;47127;47.516;8.596;2023-04-26T02:37:55;7.20;99.90
61253;DHT22;47127;47.516;8.596;2023-04-26T02:40:21;7.10;99.90
61253;DHT22;47127;47.516;8.596;2023-04-26T02:42:47;7.10;99.90
61253;DHT22;47127;47.516;8.596;2023-04-26T02:45:13;7.00;99.90
61253;DHT22;47127;47.516;8.596;2023-04-26T02:47:39;6.90;99.90
61253;DHT22;47127;47.516;8.596;2023-04-26T02:50:05;6.90;99.90
61253;DHT22;47127;47.516;8.596;2023-04-26T02:52:32;6.90;99.90
61253;DHT22;47127;47.516;8.596;2023-04-26T02:54:58;6.80;99.90
61253;DHT22;47127;47.516;8.596;2023-04-26T02:57:23;6.80;99.90
61253;DHT22;47127;47.516;8.596;2023-04-26T02:59:49;6.80;99.90
61253;DHT22;47127;47.516;8.596;2023-04-26T03:02:15;6.80;99.90
61253;DHT22;47127;47.516;8.596;2023-04-26T03:04:41;6.80;99.90
61253;DHT22;47127;47.516;8.596;2023-04-26T03:07:06;6.80;99.90
61253;DHT22;47127;47.516;8.596;2023-04-26T03:09:32;6.70;99.90
61253;DHT22;47127;47.516;8.596;2023-04-26T03:11:58;6.70;99.90
61253;DHT22;47127;47.516;8.596;2023-04-26T03:14:24;6.70;99.90
61253;DHT22;47127;47.516;8.596;2023-04-26T03:16:50;6.80;99.90
61253;DHT22;47127;47.516;8.596;2023-04-26T03:19:15;6.70;99.90
61253;DHT22;47127;47.516;8.596;2023-04-26T03:21:41;6.60;99.90
61253;DHT22;47127;47.516;8.596;2023-04-26T03:24:06;6.60;99.90
61253;DHT22;47127;47.516;8.596;2023-04-26T03:26:32;6.50;99.90
61253;DHT22;47127;47.516;8.596;2023-04-26T03:28:58;6.60;99.90
61253;DHT22;47127;47.516;8.596;2023-04-26T03:31:23;6.60;99.90
61253;DHT22;47127;47.516;8.596;2023-04-26T03:33:49;6.70;99.90
61253;DHT22;47127;47.516;8.596;2023-04-26T03:36:15;6.70;99.90
61253;DHT22;47127;47.516;8.596;2023-04-26T03:38:41;6.70;99.90
61253;DHT22;47127;47.516;8.596;2023-04-26T03:41:07;6.70;99.90
61253;DHT22;47127;47.516;8.596;2023-04-26T03:43:33;6.70;99.90
61253;DHT22;47127;47.516;8.596;2023-04-26T03:45:59;6.70;99.90
61253;DHT22;47127;47.516;8.596;2023-04-26T03:48:25;6.60;99.90
61253;DHT22;47127;47.516;8.596;2023-04-26T03:50:51;6.60;99.90
61253;DHT22;47127;47.516;8.596;2023-04-26T03:53:17;6.50;99.90
61253;DHT22;47127;47.516;8.596;2023-04-26T03:55:42;6.60;99.90
61253;DHT22;47127;47.516;8.596;2023-04-26T03:58:08;6.50;99.90
61253;DHT22;47127;47.516;8.596;2023-04-26T04:00:38;6.50;99.90
61253;DHT22;47127;47.516;8.596;2023-04-26T04:03:05;6.50;99.90
61253;DHT22;47127;47.516;8.596;2023-04-26T04:05:31;6.50;99.90
61253;DHT22;47127;47.516;8.596;2023-04-26T04:07:57;6.50;99.90
61253;DHT22;47127;47.516;8.596;2023-04-26T04:10:23;6.60;99.90
61253;DHT22;47127;47.516;8.596;2023-04-26T04:12:49;6.60;99.90
61253;DHT22;47127;47.516;8.596;2023-04-26T04:15:17;6.70;99.90
61253;DHT22;47127;47.516;8.596;2023-04-26T04:17:43;6.70;99.90
61253;DHT22;47127;47.516;8.596;2023-04-26T04:20:09;6.70;99.90
61253;DHT22;47127;47.516;8.596;2023-04-26T04:22:35;6.80;99.90
61253;DHT22;47127;47.516;8.596;2023-04-26T04:25:01;6.80;99.90
61253;DHT22;47127;47.516;8.596;2023-04-26T04:27:27;6.80;99.90
61253;DHT22;47127;47.516;8.596;2023-04-26T04:29:53;6.80;99.90
61253;DHT22;47127;47.516;8.596;2023-04-26T04:32:20;6.80;99.90
61253;DHT22;47127;47.516;8.596;2023-04-26T04:34:47;6.70;99.90
61253;DHT22;47127;47.516;8.596;2023-04-26T04:37:13;6.80;99.90
61253;DHT22;47127;47.516;8.596;2023-04-26T04:39:39;6.70;99.90
61253;DHT22;47127;47.516;8.596;2023-04-26T04:42:05;6.60;99.90
61253;DHT22;47127;47.516;8.596;2023-04-26T04:44:31;6.50;99.90
61253;DHT22;47127;47.516;8.596;2023-04-26T04:46:57;6.60;99.90
61253;DHT22;47127;47.516;8.596;2023-04-26T04:49:22;6.60;99.90
61253;DHT22;47127;47.516;8.596;2023-04-26T04:51:49;6.60;99.90
61253;DHT22;47127;47.516;8.596;2023-04-26T04:54:16;6.70;99.90
61253;DHT22;47127;47.516;8.596;2023-04-26T04:56:43;6.70;99.90
61253;DHT22;47127;47.516;8.596;2023-04-26T04:59:09;6.80;99.90
61253;DHT22;47127;47.516;8.596;2023-04-26T05:01:34;6.80;99.90
61253;DHT22;47127;47.516;8.596;2023-04-26T05:04:01;6.70;99.90
61253;DHT22;47127;47.516;8.596;2023-04-26T05:06:28;6.80;99.90
61253;DHT22;47127;47.516;8.596;2023-04-26T05:08:54;6.70;99.90
61253;DHT22;47127;47.516;8.596;2023-04-26T05:11:20;6.80;99.90
61253;DHT22;47127;47.516;8.596;2023-04-26T05:13:46;6.80;99.90
61253;DHT22;47127;47.516;8.596;2023-04-26T05:16:12;6.80;99.90
61253;DHT22;47127;47.516;8.596;2023-04-26T05:18:38;6.90;99.90
61253;DHT22;47127;47.516;8.596;2023-04-26T05:21:04;6.70;99.90
61253;DHT22;47127;47.516;8.596;2023-04-26T05:23:29;6.70;99.90
61253;DHT22;47127;47.516;8.596;2023-04-26T05:25:55;6.80;99.90
61253;DHT22;47127;47.516;8.596;2023-04-26T05:28:21;6.80;99.90
61253;DHT22;47127;47.516;8.596;2023-04-26T05:30:47;6.80;99.90
61253;DHT22;47127;47.516;8.596;2023-04-26T05:33:14;6.90;99.90
61253;DHT22;47127;47.516;8.596;2023-04-26T05:35:39;6.90;99.90
61253;DHT22;47127;47.516;8.596;2023-04-26T05:38:05;6.90;99.90
61253;DHT22;47127;47.516;8.596;2023-04-26T05:40:30;6.80;99.90
61253;DHT22;47127;47.516;8.596;2023-04-26T05:42:56;6.90;99.90
61253;DHT22;47127;47.516;8.596;2023-04-26T05:45:22;6.90;99.90
61253;DHT22;47127;47.516;8.596;2023-04-26T05:47:48;7.00;99.90
61253;DHT22;47127;47.516;8.596;2023-04-26T05:50:14;7.00;99.90
61253;DHT22;47127;47.516;8.596;2023-04-26T05:52:39;6.80;99.90
61253;DHT22;47127;47.516;8.596;2023-04-26T05:55:05;6.80;99.90
61253;DHT22;47127;47.516;8.596;2023-04-26T05:57:31;6.90;99.90
61253;DHT22;47127;47.516;8.596;2023-04-26T05:59:57;7.00;99.90
61253;DHT22;47127;47.516;8.596;2023-04-26T06:02:22;7.00;99.90
61253;DHT22;47127;47.516;8.596;2023-04-26T06:04:48;7.00;99.90
61253;DHT22;47127;47.516;8.596;2023-04-26T06:07:14;7.10;99.90
61253;DHT22;47127;47.516;8.596;2023-04-26T06:09:41;7.20;99.90
61253;DHT22;47127;47.516;8.596;2023-04-26T06:12:07;7.30;99.90
61253;DHT22;47127;47.516;8.596;2023-04-26T06:14:32;7.40;99.90
61253;DHT22;47127;47.516;8.596;2023-04-26T06:16:58;7.30;99.90
61253;DHT22;47127;47.516;8.596;2023-04-26T06:19:23;7.30;99.90
61253;DHT22;47127;47.516;8.596;2023-04-26T06:21:52;7.30;99.90
61253;DHT22;47127;47.516;8.596;2023-04-26T06:24:19;7.60;99.90
61253;DHT22;47127;47.516;8.596;2023-04-26T06:26:45;7.50;99.90
61253;DHT22;47127;47.516;8.596;2023-04-26T06:29:10;7.60;99.90
61253;DHT22;47127;47.516;8.596;2023-04-26T06:31:36;7.60;99.90
61253;DHT22;47127;47.516;8.596;2023-04-26T06:34:02;7.60;99.90
61253;DHT22;47127;47.516;8.596;2023-04-26T06:36:27;7.60;99.90
61253;DHT22;47127;47.516;8.596;2023-04-26T06:38:53;7.80;99.90
61253;DHT22;47127;47.516;8.596;2023-04-26T06:41:19;7.80;99.90
61253;DHT22;47127;47.516;8.596;2023-04-26T06:43:46;7.80;99.90
61253;DHT22;47127;47.516;8.596;2023-04-26T06:46:12;7.80;99.90
61253;DHT22;47127;47.516;8.596;2023-04-26T06:48:38;7.80;99.90
61253;DHT22;47127;47.516;8.596;2023-04-26T06:51:05;7.80;99.90
61253;DHT22;47127;47.516;8.596;2023-04-26T06:53:31;7.80;99.90
61253;DHT22;47127;47.516;8.596;2023-04-26T06:55:56;8.00;99.90
61253;DHT22;47127;47.516;8.596;2023-04-26T06:58:22;7.90;99.90
61253;DHT22;47127;47.516;8.596;2023-04-26T07:00:48;8.00;99.90
61253;DHT22;47127;47.516;8.596;2023-04-26T07:03:13;8.10;99.90
61253;DHT22;47127;47.516;8.596;2023-04-26T07:05:39;8.10;99.90
61253;DHT22;47127;47.516;8.596;2023-04-26T07:08:05;8.20;99.90
61253;DHT22;47127;47.516;8.596;2023-04-26T07:10:35;8.30;99.90
61253;DHT22;47127;47.516;8.596;2023-04-26T07:13:00;8.30;99.90
61253;DHT22;47127;47.516;8.596;2023-04-26T07:15:27;8.30;99.90
61253;DHT22;47127;47.516;8.596;2023-04-26T07:17:53;8.40;99.90
61253;DHT22;47127;47.516;8.596;2023-04-26T07:20:19;8.40;99.90
61253;DHT22;47127;47.516;8.596;2023-04-26T07:22:47;8.50;99.90
61253;DHT22;47127;47.516;8.596;2023-04-26T07:25:12;8.60;99.90
61253;DHT22;47127;47.516;8.596;2023-04-26T07:27:38;8.60;99.90
61253;DHT22;47127;47.516;8.596;2023-04-26T07:30:04;8.60;99.90
61253;DHT22;47127;47.516;8.596;2023-04-26T07:32:30;8.70;99.90
61253;DHT22;47127;47.516;8.596;2023-04-26T07:34:55;8.70;99.90
61253;DHT22;47127;47.516;8.596;2023-04-26T07:37:21;8.70;99.90
61253;DHT22;47127;47.516;8.596;2023-04-26T07:39:47;8.90;99.90
61253;DHT22;47127;47.516;8.596;2023-04-26T07:42:13;8.90;99.90
61253;DHT22;47127;47.516;8.596;2023-04-26T07:44:38;9.00;99.90
61253;DHT22;47127;47.516;8.596;2023-04-26T07:47:04;9.00;99.90
61253;DHT22;47127;47.516;8.596;2023-04-26T07:49:29;9.10;99.90
61253;DHT22;47127;47.516;8.596;2023-04-26T07:51:55;9.10;99.90
61253;DHT22;47127;47.516;8.596;2023-04-26T07:54:22;9.20;99.90
61253;DHT22;47127;47.516;8.596;2023-04-26T07:56:48;9.30;99.90
61253;DHT22;47127;47.516;8.596;2023-04-26T07:59:13;9.20;99.90
61253;DHT22;47127;47.516;8.596;2023-04-26T08:01:39;9.20;99.90
61253;DHT22;47127;47.516;8.596;2023-04-26T08:04:04;9.30;99.90
61253;DHT22;47127;47.516;8.596;2023-04-26T08:06:30;9.50;99.90
61253;DHT22;47127;47.516;8.596;2023-04-26T08:08:56;9.60;99.90
61253;DHT22;47127;47.516;8.596;2023-04-26T08:11:21;9.70;99.90
61253;DHT22;47127;47.516;8.596;2023-04-26T08:13:47;9.70;99.90
61253;DHT22;47127;47.516;8.596;2023-04-26T08:16:13;9.80;99.90
61253;DHT22;47127;47.516;8.596;2023-04-26T08:18:39;9.90;99.90
61253;DHT22;47127;47.516;8.596;2023-04-26T08:21:04;10.10;99.90
61253;DHT22;47127;47.516;8.596;2023-04-26T08:23:34;10.10;99.90
61253;DHT22;47127;47.516;8.596;2023-04-26T08:26:03;10.20;99.90
61253;DHT22;47127;47.516;8.596;2023-04-26T08:28:31;10.20;99.90
61253;DHT22;47127;47.516;8.596;2023-04-26T08:30:57;10.30;99.90
61253;DHT22;47127;47.516;8.596;2023-04-26T08:33:22;10.30;99.90
61253;DHT22;47127;47.516;8.596;2023-04-26T08:35:49;10.30;99.90
61253;DHT22;47127;47.516;8.596;2023-04-26T08:38:15;10.40;99.90
61253;DHT22;47127;47.516;8.596;2023-04-26T08:40:42;10.60;99.90
61253;DHT22;47127;47.516;8.596;2023-04-26T08:43:13;10.70;99.90
61253;DHT22;47127;47.516;8.596;2023-04-26T08:45:39;10.70;99.90
61253;DHT22;47127;47.516;8.596;2023-04-26T08:48:09;10.90;99.90
61253;DHT22;47127;47.516;8.596;2023-04-26T08:50:38;10.90;99.90
61253;DHT22;47127;47.516;8.596;2023-04-26T08:53:05;10.80;99.90
61253;DHT22;47127;47.516;8.596;2023-04-26T08:55:32;11.00;99.90
61253;DHT22;47127;47.516;8.596;2023-04-26T08:58:00;11.10;99.90
61253;DHT22;47127;47.516;8.596;2023-04-26T09:00:26;11.20;99.90
61253;DHT22;47127;47.516;8.596;2023-04-26T09:02:52;11.20;99.90
61253;DHT22;47127;47.516;8.596;2023-04-26T09:05:21;11.30;99.90
61253;DHT22;47127;47.516;8.596;2023-04-26T09:08:00;11.20;99.90
61253;DHT22;47127;47.516;8.596;2023-04-26T09:10:28;11.60;99.90
61253;DHT22;47127;47.516;8.596;2023-04-26T09:12:55;11.60;99.90
61253;DHT22;47127;47.516;8.596;2023-04-26T09:15:22;11.70;99.90
61253;DHT22;47127;47.516;8.596;2023-04-26T09:17:47;11.70;99.90
61253;DHT22;47127;47.516;8.596;2023-04-26T09:22:43;11.30;99.90
61253;DHT22;47127;47.516;8.596;2023-04-26T09:25:10;11.10;99.90
61253;DHT22;47127;47.516;8.596;2023-04-26T09:27:39;11.20;99.90
61253;DHT22;47127;47.516;8.596;2023-04-26T09:30:07;11.20;99.90
61253;DHT22;47127;47.516;8.596;2023-04-26T09:32:47;11.30;99.90
61253;DHT22;47127;47.516;8.596;2023-04-26T09:35:21;11.40;99.90
61253;DHT22;47127;47.516;8.596;2023-04-26T09:38:11;11.90;99.90
61253;DHT22;47127;47.516;8.596;2023-04-26T09:40:45;12.10;99.90
61253;DHT22;47127;47.516;8.596;2023-04-26T09:43:14;12.10;99.90
61253;DHT22;47127;47.516;8.596;2023-04-26T09:45:48;12.00;99.90
61253;DHT22;47127;47.516;8.596;2023-04-26T09:48:26;12.10;99.90
61253;DHT22;47127;47.516;8.596;2023-04-26T09:50:57;12.40;99.90
61253;DHT22;47127;47.516;8.596;2023-04-26T09:53:41;12.60;99.90
61253;DHT22;47127;47.516;8.596;2023-04-26T09:56:17;12.60;99.90
61253;DHT22;47127;47.516;8.596;2023-04-26T10:01:17;12.90;99.90
61253;DHT22;47127;47.516;8.596;2023-04-26T10:03:44;12.90;99.90
61253;DHT22;47127;47.516;8.596;2023-04-26T10:06:11;13.00;99.90
61253;DHT22;47127;47.516;8.596;2023-04-26T10:08:37;12.50;99.90
61253;DHT22;47127;47.516;8.596;2023-04-26T10:11:03;12.50;99.90
61253;DHT22;47127;47.516;8.596;2023-04-26T10:13:33;13.00;99.90
61253;DHT22;47127;47.516;8.596;2023-04-26T10:15:59;13.20;99.90
61253;DHT22;47127;47.516;8.596;2023-04-26T10:18:27;13.00;99.90
61253;DHT22;47127;47.516;8.596;2023-04-26T10:20:55;12.80;99.90
61253;DHT22;47127;47.516;8.596;2023-04-26T10:23:23;12.80;99.90
61253;DHT22;47127;47.516;8.596;2023-04-26T10:25:52;13.00;99.90
61253;DHT22;47127;47.516;8.596;2023-04-26T10:31:04;13.50;99.90
61253;DHT22;47127;47.516;8.596;2023-04-26T10:33:31;13.40;99.90
61253;DHT22;47127;47.516;8.596;2023-04-26T10:36:00;13.70;99.90
61253;DHT22;47127;47.516;8.596;2023-04-26T10:38:26;13.90;99.90
61253;DHT22;47127;47.516;8.596;2023-04-26T10:40:51;13.80;99.90
61253;DHT22;47127;47.516;8.596;2023-04-26T10:43:27;13.90;99.90
61253;DHT22;47127;47.516;8.596;2023-04-26T10:45:53;14.00;99.90
61253;DHT22;47127;47.516;8.596;2023-04-26T10:48:27;14.30;99.60
61253;DHT22;47127;47.516;8.596;2023-04-26T10:58:49;15.00;97.50
61253;DHT22;47127;47.516;8.596;2023-04-26T11:01:31;15.10;97.40
61253;DHT22;47127;47.516;8.596;2023-04-26T11:06:24;15.20;97.00
61253;DHT22;47127;47.516;8.596;2023-04-26T11:08:50;15.40;96.50
61253;DHT22;47127;47.516;8.596;2023-04-26T11:11:16;15.60;95.20
61253;DHT22;47127;47.516;8.596;2023-04-26T11:13:44;15.70;94.90
61253;DHT22;47127;47.516;8.596;2023-04-26T11:16:15;15.60;94.40
61253;DHT22;47127;47.516;8.596;2023-04-26T11:18:43;15.30;93.10
61253;DHT22;47127;47.516;8.596;2023-04-26T11:21:09;15.30;92.80
61253;DHT22;47127;47.516;8.596;2023-04-26T11:23:35;15.20;91.70
61253;DHT22;47127;47.516;8.596;2023-04-26T11:26:06;15.20;91.90
61253;DHT22;47127;47.516;8.596;2023-04-26T11:28:36;15.10;92.40
61253;DHT22;47127;47.516;8.596;2023-04-26T11:31:03;15.30;91.10
61253;DHT22;47127;47.516;8.596;2023-04-26T11:33:29;15.20;91.80
61253;DHT22;47127;47.516;8.596;2023-04-26T11:35:57;15.10;92.20
61253;DHT22;47127;47.516;8.596;2023-04-26T11:38:27;15.60;87.90
61253;DHT22;47127;47.516;8.596;2023-04-26T11:41:02;15.90;84.70
61253;DHT22;47127;47.516;8.596;2023-04-26T11:43:34;15.80;79.80
61253;DHT22;47127;47.516;8.596;2023-04-26T11:46:01;15.60;80.60
61253;DHT22;47127;47.516;8.596;2023-04-26T11:48:28;15.00;78.30
61253;DHT22;47127;47.516;8.596;2023-04-26T11:50:58;14.90;78.30
61253;DHT22;47127;47.516;8.596;2023-04-26T11:53:24;14.60;80.90
61253;DHT22;47127;47.516;8.596;2023-04-26T11:55:51;14.50;80.60
61253;DHT22;47127;47.516;8.596;2023-04-26T11:58:17;14.40;80.70
61253;DHT22;47127;47.516;8.596;2023-04-26T12:00:59;14.40;81.00
61253;DHT22;47127;47.516;8.596;2023-04-26T12:03:33;14.60;80.30
61253;DHT22;47127;47.516;8.596;2023-04-26T12:06:02;14.50;80.00
61253;DHT22;47127;47.516;8.596;2023-04-26T12:08:28;14.70;78.90
61253;DHT22;47127;47.516;8.596;2023-04-26T12:10:59;15.00;81.50
61253;DHT22;47127;47.516;8.596;2023-04-26T12:13:25;15.00;81.80
61253;DHT22;47127;47.516;8.596;2023-04-26T12:15:51;15.10;81.70
61253;DHT22;47127;47.516;8.596;2023-04-26T12:18:17;14.70;83.30
61253;DHT22;47127;47.516;8.596;2023-04-26T12:20:43;14.50;82.50
61253;DHT22;47127;47.516;8.596;2023-04-26T12:23:15;14.50;82.30
61253;DHT22;47127;47.516;8.596;2023-04-26T12:25:51;14.50;78.90
61253;DHT22;47127;47.516;8.596;2023-04-26T12:28:18;14.60;80.80
61253;DHT22;47127;47.516;8.596;2023-04-26T12:30:44;15.00;81.30
61253;DHT22;47127;47.516;8.596;2023-04-26T12:33:09;15.10;81.80
61253;DHT22;47127;47.516;8.596;2023-04-26T12:35:35;15.10;83.00
61253;DHT22;47127;47.516;8.596;2023-04-26T12:38:01;15.20;83.70
61253;DHT22;47127;47.516;8.596;2023-04-26T12:40:27;15.10;81.60
61253;DHT22;47127;47.516;8.596;2023-04-26T12:42:53;15.30;81.90
61253;DHT22;47127;47.516;8.596;2023-04-26T12:45:21;15.40;81.80
61253;DHT22;47127;47.516;8.596;2023-04-26T12:47:47;15.50;82.00
61253;DHT22;47127;47.516;8.596;2023-04-26T12:50:14;15.40;79.10
61253;DHT22;47127;47.516;8.596;2023-04-26T12:52:41;15.50;80.00
61253;DHT22;47127;47.516;8.596;2023-04-26T12:55:12;15.80;79.00
61253;DHT22;47127;47.516;8.596;2023-04-26T12:57:40;15.70;77.70
61253;DHT22;47127;47.516;8.596;2023-04-26T13:00:09;15.90;78.50
61253;DHT22;47127;47.516;8.596;2023-04-26T13:02:36;16.30;79.10
61253;DHT22;47127;47.516;8.596;2023-04-26T13:05:02;16.60;77.90
61253;DHT22;47127;47.516;8.596;2023-04-26T13:07:33;16.80;76.60
61253;DHT22;47127;47.516;8.596;2023-04-26T13:10:00;17.00;73.30
61253;DHT22;47127;47.516;8.596;2023-04-26T13:12:26;17.00;73.40
61253;DHT22;47127;47.516;8.596;2023-04-26T13:14:52;16.90;71.50
61253;DHT22;47127;47.516;8.596;2023-04-26T13:17:18;16.90;71.10
61253;DHT22;47127;47.516;8.596;2023-04-26T13:19:44;16.80;71.10
61253;DHT22;47127;47.516;8.596;2023-04-26T13:22:10;17.00;70.70
61253;DHT22;47127;47.516;8.596;2023-04-26T13:24:36;17.30;71.30
61253;DHT22;47127;47.516;8.596;2023-04-26T13:27:02;17.10;68.90
61253;DHT22;47127;47.516;8.596;2023-04-26T13:29:29;16.90;69.60
61253;DHT22;47127;47.516;8.596;2023-04-26T13:31:56;16.80;72.00
61253;DHT22;47127;47.516;8.596;2023-04-26T13:34:24;16.60;72.10
61253;DHT22;47127;47.516;8.596;2023-04-26T13:36:50;16.40;74.10
61253;DHT22;47127;47.516;8.596;2023-04-26T13:39:16;16.50;70.80
61253;DHT22;47127;47.516;8.596;2023-04-26T13:41:41;17.00;69.00
61253;DHT22;47127;47.516;8.596;2023-04-26T13:44:07;17.70;67.50
61253;DHT22;47127;47.516;8.596;2023-04-26T13:46:33;18.00;67.60
61253;DHT22;47127;47.516;8.596;2023-04-26T13:48:59;18.20;66.80
61253;DHT22;47127;47.516;8.596;2023-04-26T13:51:25;18.20;66.70
61253;DHT22;47127;47.516;8.596;2023-04-26T13:53:52;17.90;66.90
61253;DHT22;47127;47.516;8.596;2023-04-26T13:56:18;17.50;69.00
61253;DHT22;47127;47.516;8.596;2023-04-26T13:58:44;17.40;68.30
61253;DHT22;47127;47.516;8.596;2023-04-26T14:01:11;17.60;66.90
61253;DHT22;47127;47.516;8.596;2023-04-26T14:03:36;17.50;65.20
61253;DHT22;47127;47.516;8.596;2023-04-26T14:06:02;17.70;65.80
61253;DHT22;47127;47.516;8.596;2023-04-26T14:08:28;17.30;65.50
61253;DHT22;47127;47.516;8.596;2023-04-26T14:10:54;17.30;66.60
61253;DHT22;47127;47.516;8.596;2023-04-26T14:13:20;17.60;65.30
61253;DHT22;47127;47.516;8.596;2023-04-26T14:15:46;17.60;65.30
61253;DHT22;47127;47.516;8.596;2023-04-26T14:18:11;17.70;66.70
61253;DHT22;47127;47.516;8.596;2023-04-26T14:20:37;17.50;64.60
61253;DHT22;47127;47.516;8.596;2023-04-26T14:23:03;17.30;66.10
61253;DHT22;47127;47.516;8.596;2023-04-26T14:25:28;17.50;65.00
61253;DHT22;47127;47.516;8.596;2023-04-26T14:27:54;17.50;65.70
61253;DHT22;47127;47.516;8.596;2023-04-26T14:30:20;16.80;67.90
61253;DHT22;47127;47.516;8.596;2023-04-26T14:32:45;16.70;66.60
61253;DHT22;47127;47.516;8.596;2023-04-26T14:35:11;17.00;65.50
61253;DHT22;47127;47.516;8.596;2023-04-26T14:37:37;16.70;66.60
61253;DHT22;47127;47.516;8.596;2023-04-26T14:40:03;16.60;68.90
61253;DHT22;47127;47.516;8.596;2023-04-26T14:42:29;16.60;68.00
61253;DHT22;47127;47.516;8.596;2023-04-26T14:44:57;16.70;66.70
61253;DHT22;47127;47.516;8.596;2023-04-26T14:47:23;16.70;67.90
61253;DHT22;47127;47.516;8.596;2023-04-26T14:49:48;16.80;66.40
61253;DHT22;47127;47.516;8.596;2023-04-26T14:52:14;16.90;67.30
61253;DHT22;47127;47.516;8.596;2023-04-26T14:54:40;16.90;71.70
61253;DHT22;47127;47.516;8.596;2023-04-26T14:57:07;16.70;68.80
61253;DHT22;47127;47.516;8.596;2023-04-26T14:59:33;16.70;67.90
61253;DHT22;47127;47.516;8.596;2023-04-26T15:01:59;16.70;66.40
61253;DHT22;47127;47.516;8.596;2023-04-26T15:04:24;16.70;66.50
61253;DHT22;47127;47.516;8.596;2023-04-26T15:06:50;16.90;67.70
61253;DHT22;47127;47.516;8.596;2023-04-26T15:09:15;17.10;66.20
61253;DHT22;47127;47.516;8.596;2023-04-26T15:11:41;17.30;64.50
61253;DHT22;47127;47.516;8.596;2023-04-26T15:14:07;17.30;67.60
61253;DHT22;47127;47.516;8.596;2023-04-26T15:16:32;17.10;65.30
61253;DHT22;47127;47.516;8.596;2023-04-26T15:18:59;16.50;65.50
61253;DHT22;47127;47.516;8.596;2023-04-26T15:21:25;16.60;65.50
61253;DHT22;47127;47.516;8.596;2023-04-26T15:23:55;16.90;65.90
61253;DHT22;47127;47.516;8.596;2023-04-26T15:26:21;17.20;66.70
61253;DHT22;47127;47.516;8.596;2023-04-26T15:28:48;17.20;65.30
61253;DHT22;47127;47.516;8.596;2023-04-26T15:31:13;17.00;65.70
61253;DHT22;47127;47.516;8.596;2023-04-26T15:33:39;16.70;67.20
61253;DHT22;47127;47.516;8.596;2023-04-26T15:36:05;16.60;66.20
61253;DHT22;47127;47.516;8.596;2023-04-26T15:38:32;16.70;65.80
61253;DHT22;47127;47.516;8.596;2023-04-26T15:40:58;16.70;65.20
61253;DHT22;47127;47.516;8.596;2023-04-26T15:43:24;16.70;66.60
61253;DHT22;47127;47.516;8.596;2023-04-26T15:45:49;16.80;64.90
61253;DHT22;47127;47.516;8.596;2023-04-26T15:48:15;16.60;67.90
61253;DHT22;47127;47.516;8.596;2023-04-26T15:50:41;16.50;67.70
61253;DHT22;47127;47.516;8.596;2023-04-26T15:53:06;16.30;67.80
61253;DHT22;47127;47.516;8.596;2023-04-26T15:55:32;16.10;68.80